Terminal Aerodrome Forecast
Issued by NWS

Home | Current Version | Previous Version | Text Only | Print | Product List | Glossary On
Versions: 1 2 3 4 5 6 7 8 9 10 11 12 13 14 15 16 17 18 19 20 21 22 23 24
000
FTUS44 KLIX 212300
TAFHUM
TAF
KHUM 212320Z 2200/2224 VRB03KT P6SM SCT035 SCT150 BKN250
     FM220300 00000KT P6SM SCT250
      TEMPO 2208/2212 3SM BR
     FM221500 VRB05KT P6SM SCT040=

USA.gov is the U.S. government's official web portal to all federal, state and local government web resources and services.